createdAt,value
2022-10-22T00:01:08.670Z,16.97
2022-10-22T00:03:39.190Z,16.60
2022-10-22T00:06:07.282Z,15.27
2022-10-22T00:08:35.206Z,14.25
2022-10-22T00:11:29.329Z,13.48
2022-10-22T00:13:58.102Z,12.77
2022-10-22T00:16:25.957Z,13.45
2022-10-22T00:18:53.604Z,16.02
2022-10-22T00:21:21.395Z,17.18
2022-10-22T00:23:49.183Z,16.18
2022-10-22T00:26:16.827Z,14.86
2022-10-22T00:28:44.465Z,13.87
2022-10-22T00:31:12.166Z,13.12
2022-10-22T00:33:39.755Z,12.52
2022-10-22T00:36:08.232Z,13.25
2022-10-22T00:38:36.211Z,15.93
2022-10-22T00:41:03.868Z,17.27
2022-10-22T00:43:31.487Z,16.46
2022-10-22T00:45:59.111Z,15.07
2022-10-22T00:48:30.066Z,14.03
2022-10-22T00:51:07.386Z,13.27
2022-10-22T00:53:40.056Z,12.68
2022-10-22T00:56:09.238Z,13.33
2022-10-22T00:58:41.948Z,15.67
2022-10-22T01:01:16.428Z,16.92
2022-10-22T01:03:44.192Z,16.48
2022-10-22T01:06:18.417Z,15.12
2022-10-22T01:09:08.057Z,14.00
2022-10-22T01:12:14.773Z,13.11
2022-10-22T01:14:54.240Z,12.42
2022-10-22T01:17:30.018Z,13.21
2022-10-22T01:20:00.774Z,15.53
2022-10-22T01:22:54.952Z,16.97
2022-10-22T01:25:31.133Z,17.21
2022-10-22T01:28:11.851Z,15.66
2022-10-22T01:30:41.180Z,14.40
2022-10-22T01:33:12.676Z,13.56
2022-10-22T01:35:44.338Z,12.94
2022-10-22T01:38:22.132Z,13.69
2022-10-22T01:40:51.441Z,16.37
2022-10-22T01:43:19.244Z,17.59
2022-10-22T01:45:54.172Z,16.81
2022-10-22T01:48:43.315Z,15.30
2022-10-22T01:51:29.699Z,14.11
2022-10-22T01:54:59.288Z,13.33
2022-10-22T01:57:41.351Z,14.94
2022-10-22T02:00:15.360Z,17.22
2022-10-22T02:02:51.126Z,17.43
2022-10-22T02:05:30.247Z,15.90
2022-10-22T02:08:03.203Z,14.54
2022-10-22T02:10:31.316Z,13.60
2022-10-22T02:13:01.402Z,12.92
2022-10-22T02:15:32.410Z,13.60
2022-10-22T02:18:01.345Z,16.08
2022-10-22T02:20:33.000Z,17.24
2022-10-22T02:23:01.708Z,17.13
2022-10-22T02:25:34.483Z,15.64
2022-10-22T02:28:18.346Z,14.28
2022-10-22T02:30:54.263Z,13.27
2022-10-22T02:33:28.693Z,13.91
2022-10-22T02:35:58.273Z,16.03
2022-10-22T02:38:28.264Z,17.33
2022-10-22T02:40:57.623Z,17.45
2022-10-22T02:43:25.624Z,16.08
2022-10-22T02:45:53.296Z,14.83
2022-10-22T02:50:53.555Z,14.58
2022-10-22T02:53:21.275Z,16.74
2022-10-22T02:55:49.045Z,17.87
2022-10-22T02:58:16.923Z,16.94
2022-10-22T03:00:44.664Z,15.49
2022-10-22T03:03:12.400Z,14.39
2022-10-22T03:05:40.129Z,13.58
2022-10-22T03:08:07.950Z,14.14
2022-10-22T03:10:35.635Z,16.49
2022-10-22T03:13:03.267Z,17.58
2022-10-22T03:15:30.872Z,17.45
2022-10-22T03:17:58.671Z,16.07
2022-10-22T03:20:26.474Z,14.84
2022-10-22T03:22:55.146Z,13.86
2022-10-22T03:25:25.254Z,14.21
2022-10-22T03:27:56.428Z,16.64
2022-10-22T03:30:24.010Z,17.97
2022-10-22T03:32:51.622Z,17.94
2022-10-22T03:35:19.281Z,16.45
2022-10-22T03:37:47.052Z,15.13
2022-10-22T03:40:15.140Z,14.16
2022-10-22T03:42:43.093Z,14.59
2022-10-22T03:45:11.216Z,16.85
2022-10-22T03:47:39.177Z,17.92
2022-10-22T03:50:07.929Z,16.96
2022-10-22T03:52:37.692Z,15.47
2022-10-22T03:55:06.949Z,14.33
2022-10-22T03:57:34.844Z,13.50
2022-10-22T04:00:04.946Z,13.95
2022-10-22T04:02:32.786Z,16.32
2022-10-22T04:05:00.733Z,17.62
2022-10-22T04:07:28.574Z,17.58
2022-10-22T04:09:56.235Z,16.15
2022-10-22T04:12:23.924Z,14.90
2022-10-22T04:14:51.714Z,13.95
2022-10-22T04:17:19.378Z,14.32
2022-10-22T04:19:47.072Z,16.68
2022-10-22T04:22:14.683Z,17.94
2022-10-22T04:24:42.298Z,17.00
2022-10-22T04:27:09.940Z,15.64
2022-10-22T04:29:37.606Z,14.60
2022-10-22T04:32:05.302Z,13.86
2022-10-22T04:34:33.000Z,14.36
2022-10-22T04:37:00.615Z,16.73
2022-10-22T04:39:28.407Z,18.12
2022-10-22T04:41:56.223Z,17.31
2022-10-22T04:44:23.939Z,15.94
2022-10-22T04:46:51.716Z,14.92
2022-10-22T04:49:19.778Z,14.20
2022-10-22T04:51:47.372Z,14.61
2022-10-22T04:54:15.281Z,16.95
2022-10-22T04:56:42.995Z,17.71
2022-10-22T04:59:12.745Z,16.52
2022-10-22T05:01:43.850Z,15.32
2022-10-22T05:04:14.803Z,14.43
2022-10-22T05:06:43.242Z,13.74
2022-10-22T05:09:14.033Z,14.17
2022-10-22T05:11:46.156Z,16.57
2022-10-22T05:14:17.178Z,17.84
2022-10-22T05:16:48.259Z,17.04
2022-10-22T05:19:25.958Z,15.57
2022-10-22T05:21:55.759Z,14.45
2022-10-22T05:24:23.713Z,13.68
2022-10-22T05:26:53.257Z,14.17
2022-10-22T05:29:21.586Z,16.59
2022-10-22T05:31:49.240Z,17.98
2022-10-22T05:34:17.492Z,17.60
2022-10-22T05:36:45.606Z,16.20
2022-10-22T05:39:13.362Z,15.07
2022-10-22T05:41:42.495Z,14.21
2022-10-22T05:44:11.917Z,13.61
2022-10-22T05:46:40.015Z,14.33
2022-10-22T05:49:07.713Z,16.84
2022-10-22T05:51:36.764Z,18.01
2022-10-22T05:54:07.534Z,17.23
2022-10-22T05:56:37.003Z,15.82
2022-10-22T05:59:04.819Z,14.79
2022-10-22T06:01:35.458Z,14.02
2022-10-22T06:04:06.512Z,13.48
2022-10-22T06:06:35.723Z,14.34
2022-10-22T06:09:23.808Z,16.98
2022-10-22T06:11:51.938Z,18.13
2022-10-22T06:14:20.573Z,17.00
2022-10-22T06:16:49.623Z,15.71
2022-10-22T06:19:20.328Z,14.75
2022-10-22T06:21:48.651Z,14.03
2022-10-22T06:24:16.592Z,14.38
2022-10-22T06:26:44.772Z,16.90
2022-10-22T06:29:12.420Z,18.18
2022-10-22T06:31:40.039Z,17.32
2022-10-22T06:34:12.703Z,15.93
2022-10-22T06:36:42.807Z,14.87
2022-10-22T06:39:15.989Z,14.09
2022-10-22T06:41:43.753Z,14.62
2022-10-22T06:44:19.299Z,17.19
2022-10-22T06:46:49.589Z,18.21
2022-10-22T06:49:17.506Z,16.97
2022-10-22T06:51:45.657Z,15.77
2022-10-22T06:54:13.315Z,14.84
2022-10-22T06:56:41.044Z,14.13
2022-10-22T06:59:08.759Z,14.59
2022-10-22T07:01:36.992Z,17.13
2022-10-22T07:04:05.120Z,18.25
2022-10-22T07:06:32.883Z,17.13
2022-10-22T07:09:00.761Z,15.79
2022-10-22T07:11:31.341Z,14.83
2022-10-22T07:14:01.062Z,14.11
2022-10-22T07:16:31.264Z,13.56
2022-10-22T07:19:01.508Z,14.44
2022-10-22T07:21:30.525Z,17.01
2022-10-22T07:23:59.236Z,18.46
2022-10-22T07:26:30.616Z,17.89
2022-10-22T07:29:02.987Z,16.47
2022-10-22T07:31:31.439Z,15.43
2022-10-22T07:33:59.071Z,14.70
2022-10-22T07:36:27.004Z,14.17
2022-10-22T07:38:58.490Z,14.97
2022-10-22T07:41:27.874Z,17.57
2022-10-22T07:43:55.871Z,18.90
2022-10-22T07:46:24.674Z,18.09
2022-10-22T07:48:52.776Z,16.79
2022-10-22T07:51:20.495Z,15.81
2022-10-22T07:53:48.314Z,15.11
2022-10-22T07:56:16.227Z,14.55
2022-10-22T07:58:44.885Z,15.21
2022-10-22T08:01:12.650Z,17.79
2022-10-22T08:03:40.361Z,18.84
2022-10-22T08:06:09.973Z,17.80
2022-10-22T08:08:37.694Z,16.52
2022-10-22T08:11:05.710Z,15.59
2022-10-22T08:13:33.333Z,14.95
2022-10-22T08:16:01.567Z,14.47
2022-10-22T08:18:29.603Z,15.18
2022-10-22T08:20:57.544Z,17.65
2022-10-22T08:23:27.486Z,19.01
2022-10-22T08:25:57.608Z,18.57
2022-10-22T08:28:26.037Z,17.22
2022-10-22T08:30:53.697Z,16.14
2022-10-22T08:33:21.647Z,15.37
2022-10-22T08:35:51.449Z,14.79
2022-10-22T08:38:19.905Z,14.28
2022-10-22T08:40:53.021Z,14.88
2022-10-22T08:43:39.537Z,17.45
2022-10-22T08:46:08.361Z,19.01
2022-10-22T08:48:56.227Z,18.69
2022-10-22T08:51:27.425Z,17.18
2022-10-22T08:54:17.148Z,16.14
2022-10-22T08:56:51.145Z,15.30
2022-10-22T08:59:26.141Z,14.75
2022-10-22T09:01:54.776Z,15.49
2022-10-22T09:04:30.911Z,17.83
2022-10-22T09:07:00.077Z,18.62
2022-10-22T09:09:35.249Z,17.52
2022-10-22T09:12:07.211Z,16.35
2022-10-22T09:14:35.087Z,15.51
2022-10-22T09:17:03.125Z,14.97
2022-10-22T09:19:49.708Z,14.58
2022-10-22T09:22:51.020Z,15.60
2022-10-22T09:25:25.857Z,18.50
2022-10-22T09:27:58.324Z,19.01
2022-10-22T09:30:33.498Z,17.82
2022-10-22T09:33:01.340Z,16.74
2022-10-22T09:35:34.496Z,16.04
2022-10-22T09:38:08.481Z,15.54
2022-10-22T09:40:57.498Z,15.16
2022-10-22T09:43:25.503Z,16.23
2022-10-22T09:46:17.804Z,18.29
2022-10-22T09:49:11.901Z,19.69
2022-10-22T09:51:51.970Z,18.76
2022-10-22T09:54:24.568Z,17.53
2022-10-22T09:56:57.201Z,16.68
2022-10-22T09:59:28.937Z,16.10
2022-10-22T10:02:13.748Z,15.66
2022-10-22T10:04:51.017Z,16.50
2022-10-22T10:07:21.380Z,18.84
2022-10-22T10:09:49.825Z,19.67
2022-10-22T10:12:29.543Z,18.52
2022-10-22T10:15:13.593Z,17.31
2022-10-22T10:18:00.490Z,16.46
2022-10-22T10:20:31.166Z,15.88
2022-10-22T10:23:07.605Z,16.49
2022-10-22T10:25:37.849Z,19.08
2022-10-22T10:28:33.939Z,19.82
2022-10-22T10:31:27.712Z,18.35
2022-10-22T10:34:13.114Z,17.15
2022-10-22T10:37:01.467Z,16.36
2022-10-22T10:39:38.196Z,15.81
2022-10-22T10:42:11.990Z,15.44
2022-10-22T10:45:17.233Z,16.27
2022-10-22T10:48:40.533Z,19.29
2022-10-22T10:51:40.720Z,19.31
2022-10-22T10:54:27.826Z,17.73
2022-10-22T10:57:07.991Z,16.71
2022-10-22T10:59:41.979Z,16.05
2022-10-22T11:02:34.554Z,15.61
2022-10-22T11:05:14.174Z,16.75
2022-10-22T11:07:49.917Z,19.37
2022-10-22T11:10:30.353Z,20.03
2022-10-22T11:13:06.939Z,18.73
2022-10-22T11:15:37.514Z,17.57
2022-10-22T11:18:13.930Z,16.82
2022-10-22T11:20:49.279Z,16.27
2022-10-22T11:23:34.011Z,15.85
2022-10-22T11:26:02.917Z,16.81
2022-10-22T11:28:59.086Z,19.39
2022-10-22T11:31:27.757Z,19.94
2022-10-22T11:34:33.234Z,18.72
2022-10-22T11:37:03.152Z,17.46
2022-10-22T11:39:49.016Z,16.80
2022-10-22T11:42:22.810Z,16.28
2022-10-22T11:45:06.253Z,15.90
2022-10-22T11:47:51.741Z,16.81
2022-10-22T11:50:25.438Z,19.47
2022-10-22T11:53:02.625Z,20.21
2022-10-22T11:55:55.462Z,19.06
2022-10-22T11:58:27.392Z,17.85
2022-10-22T12:01:18.474Z,17.15
2022-10-22T12:03:50.741Z,16.57
2022-10-22T12:06:29.180Z,16.14
2022-10-22T12:09:01.534Z,16.88
2022-10-22T12:11:29.277Z,19.05
2022-10-22T12:14:40.687Z,19.81
2022-10-22T12:17:14.415Z,18.40
2022-10-22T12:19:49.461Z,17.41
2022-10-22T12:22:21.477Z,16.71
2022-10-22T12:24:51.493Z,16.18
2022-10-22T12:27:24.778Z,16.75
2022-10-22T12:30:00.993Z,18.97
2022-10-22T12:32:37.637Z,19.67
2022-10-22T12:35:20.509Z,18.53
2022-10-22T12:37:53.085Z,17.39
2022-10-22T12:40:47.687Z,16.66
2022-10-22T12:43:25.605Z,16.08
2022-10-22T12:45:54.595Z,16.75
2022-10-22T12:48:37.370Z,18.84
2022-10-22T12:51:08.237Z,20.01
2022-10-22T12:53:39.306Z,19.22
2022-10-22T12:56:12.337Z,17.97
2022-10-22T12:58:46.946Z,17.04
2022-10-22T13:01:17.345Z,16.34
2022-10-22T13:03:50.419Z,15.82
2022-10-22T13:06:22.397Z,16.43
2022-10-22T13:09:00.333Z,18.73
2022-10-22T13:11:33.873Z,20.01
2022-10-22T13:14:04.089Z,19.31
2022-10-22T13:16:32.260Z,17.99
2022-10-22T13:18:59.977Z,17.05
2022-10-22T13:21:48.800Z,16.36
2022-10-22T13:24:22.198Z,17.13
2022-10-22T13:26:53.099Z,19.32
2022-10-22T13:29:23.449Z,19.89
2022-10-22T13:31:53.442Z,18.71
2022-10-22T13:34:24.903Z,17.54
2022-10-22T13:36:52.677Z,16.76
2022-10-22T13:39:22.981Z,16.21
2022-10-22T13:41:51.761Z,16.78
2022-10-22T13:44:19.938Z,19.00
2022-10-22T13:46:48.454Z,19.82
2022-10-22T13:49:19.291Z,18.94
2022-10-22T13:51:47.622Z,17.76
2022-10-22T13:54:25.110Z,16.93
2022-10-22T13:56:53.725Z,16.33
2022-10-22T13:59:23.779Z,16.91
2022-10-22T14:01:52.491Z,19.23
2022-10-22T14:04:20.285Z,20.30
2022-10-22T14:06:47.988Z,19.37
2022-10-22T14:09:16.480Z,18.22
2022-10-22T14:11:44.342Z,17.38
2022-10-22T14:14:14.294Z,16.78
2022-10-22T14:16:42.096Z,16.33
2022-10-22T14:19:16.443Z,16.97
2022-10-22T14:21:44.159Z,19.25
2022-10-22T14:24:13.259Z,19.88
2022-10-22T14:26:41.811Z,18.83
2022-10-22T14:29:10.768Z,17.78
2022-10-22T14:31:42.181Z,17.03
2022-10-22T14:34:15.304Z,16.47
2022-10-22T14:36:44.131Z,17.10
2022-10-22T14:39:12.953Z,19.37
2022-10-22T14:41:41.274Z,20.22
2022-10-22T14:44:13.949Z,19.23
2022-10-22T14:46:44.164Z,18.09
2022-10-22T14:49:13.153Z,17.30
2022-10-22T14:51:41.224Z,16.70
2022-10-22T14:54:08.939Z,17.22
2022-10-22T14:59:10.482Z,20.40
2022-10-22T15:01:39.346Z,19.31
2022-10-22T15:04:06.965Z,18.19
2022-10-22T15:06:35.560Z,17.40
2022-10-22T15:09:03.677Z,16.84
2022-10-22T15:11:31.332Z,17.29
2022-10-22T15:13:59.034Z,19.55
2022-10-22T15:16:26.743Z,20.47
2022-10-22T15:18:54.646Z,19.39
2022-10-22T15:21:23.090Z,18.23
2022-10-22T15:23:50.846Z,17.40
2022-10-22T15:26:19.156Z,16.78
2022-10-22T15:28:46.964Z,17.29
2022-10-22T15:31:14.986Z,19.49
2022-10-22T15:33:43.763Z,20.59
2022-10-22T15:36:15.205Z,20.18
2022-10-22T15:38:45.139Z,18.83
2022-10-22T15:41:13.481Z,17.80
2022-10-22T15:43:41.324Z,17.04
2022-10-22T15:46:10.512Z,17.38
2022-10-22T15:48:38.543Z,19.40
2022-10-22T15:51:14.690Z,20.56
2022-10-22T15:53:43.191Z,20.00
2022-10-22T15:56:14.424Z,18.71
2022-10-22T15:58:42.190Z,17.71
2022-10-22T16:01:13.080Z,16.99
2022-10-22T16:03:41.439Z,17.59
2022-10-22T16:06:09.799Z,19.73
2022-10-22T16:08:38.332Z,20.56
2022-10-22T16:11:06.131Z,19.60
2022-10-22T16:13:35.991Z,18.41
2022-10-22T16:16:08.046Z,17.53
2022-10-22T16:18:35.773Z,16.89
2022-10-22T16:21:04.193Z,17.48
2022-10-22T16:23:31.889Z,19.88
2022-10-22T16:26:02.569Z,20.91
2022-10-22T16:28:30.424Z,19.92
2022-10-22T16:31:06.196Z,18.65
2022-10-22T16:33:41.464Z,17.68
2022-10-22T16:36:14.690Z,16.95
2022-10-22T16:38:42.624Z,17.49
2022-10-22T16:41:15.645Z,19.67
2022-10-22T16:43:47.002Z,20.86
2022-10-22T16:46:20.393Z,20.06
2022-10-22T16:48:50.491Z,18.69
2022-10-22T16:51:21.874Z,17.68
2022-10-22T16:53:52.345Z,16.95
2022-10-22T16:56:20.647Z,17.43
2022-10-22T16:58:51.128Z,19.63
2022-10-22T17:01:21.515Z,20.64
2022-10-22T17:03:49.251Z,19.77
2022-10-22T17:06:16.884Z,18.55
2022-10-22T17:08:44.638Z,17.64
2022-10-22T17:11:17.913Z,16.97
2022-10-22T17:13:49.077Z,17.49
2022-10-22T17:16:20.278Z,19.72
2022-10-22T17:18:48.293Z,20.78
2022-10-22T17:21:16.199Z,19.89
2022-10-22T17:23:44.289Z,18.67
2022-10-22T17:26:22.785Z,17.72
2022-10-22T17:28:50.743Z,17.00
2022-10-22T17:31:27.068Z,17.54
2022-10-22T17:33:57.116Z,19.82
2022-10-22T17:36:27.515Z,20.87
2022-10-22T17:38:59.194Z,19.90
2022-10-22T17:41:29.868Z,18.64
2022-10-22T17:44:01.359Z,17.68
2022-10-22T17:46:31.314Z,16.96
2022-10-22T17:49:04.835Z,17.50
2022-10-22T17:51:33.034Z,19.64
2022-10-22T17:54:02.435Z,20.57
2022-10-22T17:56:32.354Z,19.88
2022-10-22T17:59:00.133Z,18.57
2022-10-22T18:01:33.643Z,17.56
2022-10-22T18:04:07.806Z,17.90
2022-10-22T18:06:36.085Z,20.16
2022-10-22T18:09:08.020Z,20.87
2022-10-22T18:11:37.317Z,19.62
2022-10-22T18:14:05.110Z,18.37
2022-10-22T18:16:33.156Z,17.43
2022-10-22T18:19:00.933Z,17.85
2022-10-22T18:21:30.453Z,19.96
2022-10-22T18:23:59.655Z,20.78
2022-10-22T18:26:27.468Z,19.80
2022-10-22T18:28:57.115Z,18.47
2022-10-22T18:31:26.513Z,17.48
2022-10-22T18:36:29.166Z,19.88
2022-10-22T18:38:59.402Z,20.83
2022-10-22T18:41:29.540Z,20.14
2022-10-22T18:44:00.040Z,18.77
2022-10-22T18:46:29.639Z,17.69
2022-10-22T18:48:58.733Z,17.80
2022-10-22T18:51:34.513Z,19.71
2022-10-22T18:54:21.639Z,20.89
2022-10-22T18:56:50.784Z,20.33
2022-10-22T18:59:21.398Z,19.03
2022-10-22T19:01:51.385Z,17.96
2022-10-22T19:04:19.282Z,18.18
2022-10-22T19:06:47.008Z,20.10
2022-10-22T19:09:15.543Z,21.09
2022-10-22T19:11:46.353Z,20.40
2022-10-22T19:14:14.996Z,19.02
2022-10-22T19:16:42.857Z,17.91
2022-10-22T19:19:11.281Z,18.14
2022-10-22T19:21:38.931Z,20.09
2022-10-22T19:24:06.892Z,20.97
2022-10-22T19:26:34.761Z,20.10
2022-10-22T19:29:02.929Z,18.79
2022-10-22T19:31:31.283Z,17.75
2022-10-22T19:34:01.288Z,18.13
2022-10-22T19:36:32.535Z,20.31
2022-10-22T19:39:00.917Z,21.29
2022-10-22T19:41:30.578Z,20.32
2022-10-22T19:43:59.761Z,18.95
2022-10-22T19:46:29.674Z,17.90
2022-10-22T19:48:57.501Z,18.30
2022-10-22T19:51:29.766Z,20.43
2022-10-22T19:53:59.831Z,20.92
2022-10-22T19:56:28.778Z,19.62
2022-10-22T19:58:57.027Z,18.35
2022-10-22T20:01:25.877Z,17.43
2022-10-22T20:03:53.964Z,17.96
2022-10-22T20:06:21.977Z,19.98
2022-10-22T20:08:52.384Z,21.15
2022-10-22T20:11:27.412Z,20.83
2022-10-22T20:13:56.614Z,19.41
2022-10-22T20:16:28.584Z,18.23
2022-10-22T20:19:00.951Z,17.34
2022-10-22T20:21:28.789Z,17.67
2022-10-22T20:23:57.574Z,19.54
2022-10-22T20:26:28.179Z,20.79
2022-10-22T20:28:57.183Z,20.90
2022-10-22T20:31:28.584Z,19.52
2022-10-22T20:33:58.926Z,18.21
2022-10-22T20:36:27.715Z,17.25
2022-10-22T20:39:00.269Z,17.65
2022-10-22T20:41:29.353Z,19.70
2022-10-22T20:43:57.510Z,20.68
2022-10-22T20:46:30.877Z,21.25
2022-10-22T20:49:00.951Z,20.56
2022-10-22T20:51:28.673Z,19.06
2022-10-22T20:53:57.063Z,17.85
2022-10-22T20:56:24.799Z,17.79
2022-10-22T20:59:03.874Z,19.61
2022-10-22T21:01:52.328Z,20.70
2022-10-22T21:04:21.760Z,21.30
2022-10-22T21:06:50.475Z,21.03
2022-10-22T21:09:18.214Z,19.54
2022-10-22T21:11:47.069Z,18.22
2022-10-22T21:14:16.976Z,17.25
2022-10-22T21:16:49.233Z,17.72
2022-10-22T21:19:21.829Z,20.10
2022-10-22T21:21:49.787Z,21.19
2022-10-22T21:24:17.501Z,21.23
2022-10-22T21:26:45.213Z,19.73
2022-10-22T21:29:16.072Z,18.30
2022-10-22T21:31:43.888Z,17.30
2022-10-22T21:34:17.149Z,18.62
2022-10-22T21:36:44.995Z,20.32
2022-10-22T21:39:15.353Z,21.14
2022-10-22T21:41:42.941Z,20.99
2022-10-22T21:44:10.582Z,19.54
2022-10-22T21:46:38.362Z,18.18
2022-10-22T21:49:06.118Z,17.17
2022-10-22T21:51:35.807Z,17.52
2022-10-22T21:54:04.142Z,19.31
2022-10-22T21:56:34.550Z,20.47
2022-10-22T21:59:04.265Z,20.84
2022-10-22T22:01:32.080Z,20.42
2022-10-22T22:03:59.901Z,18.91
2022-10-22T22:06:32.060Z,17.64
2022-10-22T22:09:03.209Z,17.95
2022-10-22T22:11:31.134Z,19.61
2022-10-22T22:13:59.554Z,20.34
2022-10-22T22:16:30.715Z,20.59
2022-10-22T22:19:00.242Z,19.76
2022-10-22T22:21:28.105Z,18.28
2022-10-22T22:23:57.283Z,17.18
2022-10-22T22:26:29.614Z,17.39
2022-10-22T22:28:59.407Z,19.45
2022-10-22T22:31:33.986Z,20.48
2022-10-22T22:34:07.814Z,21.06
2022-10-22T22:36:38.624Z,20.77
2022-10-22T22:39:08.378Z,19.26
2022-10-22T22:41:36.042Z,18.02
2022-10-22T22:44:03.984Z,19.04
2022-10-22T22:46:31.829Z,20.38
2022-10-22T22:48:59.728Z,20.86
2022-10-22T22:51:27.629Z,19.92
2022-10-22T22:53:57.636Z,18.45
2022-10-22T22:56:27.863Z,17.30
2022-10-22T22:58:56.480Z,17.60
2022-10-22T23:01:30.710Z,19.54
2022-10-22T23:04:07.071Z,20.39
2022-10-22T23:06:38.993Z,21.03
2022-10-22T23:09:09.495Z,20.41
2022-10-22T23:11:37.466Z,18.86
2022-10-22T23:14:07.271Z,17.70
2022-10-22T23:16:37.296Z,16.88
2022-10-22T23:19:05.803Z,17.39
2022-10-22T23:21:39.295Z,19.88
2022-10-22T23:24:11.435Z,21.36
2022-10-22T23:26:42.690Z,21.31
2022-10-22T23:29:16.324Z,19.71
2022-10-22T23:31:45.057Z,18.26
2022-10-22T23:34:17.127Z,17.27
2022-10-22T23:36:45.492Z,17.66
2022-10-22T23:39:17.008Z,19.95
2022-10-22T23:41:45.215Z,21.12
2022-10-22T23:44:13.438Z,20.94
2022-10-22T23:46:41.069Z,19.45
2022-10-22T23:49:09.611Z,18.14
2022-10-22T23:51:38.260Z,17.21
2022-10-22T23:54:08.711Z,17.69
2022-10-22T23:56:36.709Z,19.80
2022-10-22T23:59:04.930Z,20.90
